sensor_id;sensor_type;location;lat;lon;timestamp;pressure;altitude;pressure_sealevel;temperature;humidity
74065;BME280;62421;51.412;5.432;2023-04-03T00:00:22;102848.97;;;0.19;100.00
74065;BME280;62421;51.412;5.432;2023-04-03T00:02:47;102850.75;;;0.18;100.00
74065;BME280;62421;51.412;5.432;2023-04-03T00:05:13;102854.25;;;0.16;100.00
74065;BME280;62421;51.412;5.432;2023-04-03T00:07:38;102848.09;;;0.14;100.00
74065;BME280;62421;51.412;5.432;2023-04-03T00:10:04;102842.78;;;0.09;100.00
74065;BME280;62421;51.412;5.432;2023-04-03T00:12:30;102859.47;;;0.05;100.00
74065;BME280;62421;51.412;5.432;2023-04-03T00:14:55;102845.34;;;0.02;100.00
74065;BME280;62421;51.412;5.432;2023-04-03T00:17:20;102850.63;;;-0.02;100.00
74065;BME280;62421;51.412;5.432;2023-04-03T00:19:46;102841.81;;;-0.04;100.00
74065;BME280;62421;51.412;5.432;2023-04-03T00:22:11;102859.44;;;-0.04;100.00
74065;BME280;62421;51.412;5.432;2023-04-03T00:24:37;102855.88;;;-0.08;100.00
74065;BME280;62421;51.412;5.432;2023-04-03T00:27:02;102866.44;;;-0.09;100.00
74065;BME280;62421;51.412;5.432;2023-04-03T00:29:27;102863.75;;;-0.11;100.00
74065;BME280;62421;51.412;5.432;2023-04-03T00:31:53;102866.41;;;-0.11;100.00
74065;BME280;62421;51.412;5.432;2023-04-03T00:34:18;102858.50;;;-0.12;100.00
74065;BME280;62421;51.412;5.432;2023-04-03T00:36:44;102861.13;;;-0.12;100.00
74065;BME280;62421;51.412;5.432;2023-04-03T00:39:10;102854.97;;;-0.14;100.00
74065;BME280;62421;51.412;5.432;2023-04-03T00:41:35;102862.88;;;-0.16;100.00
74065;BME280;62421;51.412;5.432;2023-04-03T00:44:19;102854.91;;;-0.17;100.00
74065;BME280;62421;51.412;5.432;2023-04-03T00:46:44;102868.13;;;-0.19;100.00
74065;BME280;62421;51.412;5.432;2023-04-03T00:49:09;102872.47;;;-0.24;100.00
74065;BME280;62421;51.412;5.432;2023-04-03T00:51:35;102868.97;;;-0.28;100.00
74065;BME280;62421;51.412;5.432;2023-04-03T00:54:03;102871.56;;;-0.29;100.00
74065;BME280;62421;51.412;5.432;2023-04-03T00:56:30;102857.47;;;-0.31;100.00
74065;BME280;62421;51.412;5.432;2023-04-03T00:59:21;102865.38;;;-0.36;100.00
74065;BME280;62421;51.412;5.432;2023-04-03T01:01:48;102879.47;;;-0.34;100.00
74065;BME280;62421;51.412;5.432;2023-04-03T01:06:53;102872.41;;;-0.36;100.00
74065;BME280;62421;51.412;5.432;2023-04-03T01:09:21;102872.41;;;-0.36;100.00
74065;BME280;62421;51.412;5.432;2023-04-03T01:11:47;102882.06;;;-0.37;100.00
74065;BME280;62421;51.412;5.432;2023-04-03T01:14:12;102874.16;;;-0.38;100.00
74065;BME280;62421;51.412;5.432;2023-04-03T01:16:37;102869.72;;;-0.39;100.00
74065;BME280;62421;51.412;5.432;2023-04-03T01:19:07;102878.53;;;-0.40;100.00
74065;BME280;62421;51.412;5.432;2023-04-03T01:24:37;102877.56;;;-0.50;100.00
74065;BME280;62421;51.412;5.432;2023-04-03T01:27:08;102876.66;;;-0.54;100.00
74065;BME280;62421;51.412;5.432;2023-04-03T01:29:35;102881.91;;;-0.54;100.00
74065;BME280;62421;51.412;5.432;2023-04-03T01:32:02;102882.81;;;-0.55;100.00
74065;BME280;62421;51.412;5.432;2023-04-03T01:34:29;102879.25;;;-0.58;100.00
74065;BME280;62421;51.412;5.432;2023-04-03T01:36:55;102880.13;;;-0.61;100.00
74065;BME280;62421;51.412;5.432;2023-04-03T01:39:21;102880.06;;;-0.66;100.00
74065;BME280;62421;51.412;5.432;2023-04-03T01:41:47;102882.69;;;-0.70;100.00
74065;BME280;62421;51.412;5.432;2023-04-03T01:44:12;102887.91;;;-0.73;100.00
74065;BME280;62421;51.412;5.432;2023-04-03T01:46:38;102874.69;;;-0.76;100.00
74065;BME280;62421;51.412;5.432;2023-04-03T01:49:03;102879.09;;;-0.77;100.00
74065;BME280;62421;51.412;5.432;2023-04-03T01:51:30;102869.41;;;-0.78;100.00
74065;BME280;62421;51.412;5.432;2023-04-03T01:53:56;102868.53;;;-0.78;100.00
74065;BME280;62421;51.412;5.432;2023-04-03T01:56:21;102879.94;;;-0.81;100.00
74065;BME280;62421;51.412;5.432;2023-04-03T01:58:47;102876.38;;;-0.85;100.00
74065;BME280;62421;51.412;5.432;2023-04-03T02:01:12;102878.13;;;-0.87;100.00
74065;BME280;62421;51.412;5.432;2023-04-03T02:03:37;102886.88;;;-0.89;100.00
74065;BME280;62421;51.412;5.432;2023-04-03T02:06:03;102877.22;;;-0.90;100.00
74065;BME280;62421;51.412;5.432;2023-04-03T02:08:28;102883.34;;;-0.91;100.00
74065;BME280;62421;51.412;5.432;2023-04-03T02:10:54;102883.31;;;-0.93;100.00
74065;BME280;62421;51.412;5.432;2023-04-03T02:13:20;102881.53;;;-0.95;100.00
74065;BME280;62421;51.412;5.432;2023-04-03T02:15:46;102883.28;;;-0.99;100.00
74065;BME280;62421;51.412;5.432;2023-04-03T02:18:11;102885.91;;;-0.97;100.00
74065;BME280;62421;51.412;5.432;2023-04-03T02:20:37;102882.38;;;-0.99;100.00
74065;BME280;62421;51.412;5.432;2023-04-03T02:23:04;102896.47;;;-0.99;100.00
74065;BME280;62421;51.412;5.432;2023-04-03T02:25:31;102885.88;;;-1.02;100.00
74065;BME280;62421;51.412;5.432;2023-04-03T02:27:57;102889.41;;;-1.03;100.00
74065;BME280;62421;51.412;5.432;2023-04-03T02:30:22;102884.06;;;-1.06;100.00
74065;BME280;62421;51.412;5.432;2023-04-03T02:32:47;102883.28;;;-0.97;100.00
74065;BME280;62421;51.412;5.432;2023-04-03T02:35:13;102893.91;;;-0.91;100.00
74065;BME280;62421;51.412;5.432;2023-04-03T02:37:38;102890.38;;;-0.92;100.00
74065;BME280;62421;51.412;5.432;2023-04-03T02:40:05;102897.47;;;-0.85;100.00
74065;BME280;62421;51.412;5.432;2023-04-03T02:42:31;102891.41;;;-0.76;100.00
74065;BME280;62421;51.412;5.432;2023-04-03T02:44:56;102900.22;;;-0.74;100.00
74065;BME280;62421;51.412;5.432;2023-04-03T02:47:21;102907.28;;;-0.71;100.00
74065;BME280;62421;51.412;5.432;2023-04-03T02:49:47;102902.13;;;-0.59;100.00
74065;BME280;62421;51.412;5.432;2023-04-03T02:52:13;102901.34;;;-0.46;100.00
74065;BME280;62421;51.412;5.432;2023-04-03T02:54:39;102897.94;;;-0.32;100.00
74065;BME280;62421;51.412;5.432;2023-04-03T02:57:04;102906.81;;;-0.26;100.00
74065;BME280;62421;51.412;5.432;2023-04-03T02:59:30;102914.75;;;-0.23;100.00
74065;BME280;62421;51.412;5.432;2023-04-03T03:01:55;102904.28;;;-0.12;100.00
74065;BME280;62421;51.412;5.432;2023-04-03T03:04:21;102906.09;;;-0.02;100.00
74065;BME280;62421;51.412;5.432;2023-04-03T03:06:46;102908.78;;;0.00;100.00
74065;BME280;62421;51.412;5.432;2023-04-03T03:09:12;102906.97;;;-0.06;100.00
74065;BME280;62421;51.412;5.432;2023-04-03T03:11:38;102904.34;;;-0.04;100.00
74065;BME280;62421;51.412;5.432;2023-04-03T03:14:03;102899.03;;;-0.03;100.00
74065;BME280;62421;51.412;5.432;2023-04-03T03:16:29;102909.63;;;-0.01;100.00
74065;BME280;62421;51.412;5.432;2023-04-03T03:18:54;102901.72;;;0.01;100.00
74065;BME280;62421;51.412;5.432;2023-04-03T03:21:20;102904.31;;;-0.03;100.00
74065;BME280;62421;51.412;5.432;2023-04-03T03:23:45;102896.41;;;-0.03;100.00
74065;BME280;62421;51.412;5.432;2023-04-03T03:26:11;102894.66;;;-0.04;100.00
74065;BME280;62421;51.412;5.432;2023-04-03T03:28:37;102893.75;;;-0.03;100.00
74065;BME280;62421;51.412;5.432;2023-04-03T03:31:03;102906.06;;;-0.05;100.00
74065;BME280;62421;51.412;5.432;2023-04-03T03:33:29;102908.69;;;-0.08;100.00
74065;BME280;62421;51.412;5.432;2023-04-03T03:35:55;102906.03;;;-0.09;100.00
74065;BME280;62421;51.412;5.432;2023-04-03T03:38:20;102906.91;;;-0.09;100.00
74065;BME280;62421;51.412;5.432;2023-04-03T03:40:49;102909.56;;;-0.09;100.00
74065;BME280;62421;51.412;5.432;2023-04-03T03:43:16;102916.59;;;-0.09;100.00
74065;BME280;62421;51.412;5.432;2023-04-03T03:45:41;102916.59;;;-0.12;100.00
74065;BME280;62421;51.412;5.432;2023-04-03T03:48:07;102928.88;;;-0.16;100.00
74065;BME280;62421;51.412;5.432;2023-04-03T03:50:32;102922.66;;;-0.23;100.00
74065;BME280;62421;51.412;5.432;2023-04-03T03:52:58;102926.13;;;-0.28;100.00
74065;BME280;62421;51.412;5.432;2023-04-03T03:55:23;102930.50;;;-0.30;100.00
74065;BME280;62421;51.412;5.432;2023-04-03T03:57:49;102921.66;;;-0.37;100.00
74065;BME280;62421;51.412;5.432;2023-04-03T04:00:15;102933.97;;;-0.40;100.00
74065;BME280;62421;51.412;5.432;2023-04-03T04:02:41;102927.81;;;-0.39;100.00
74065;BME280;62421;51.412;5.432;2023-04-03T04:05:06;102925.22;;;-0.36;100.00
74065;BME280;62421;51.412;5.432;2023-04-03T04:07:32;102924.31;;;-0.37;100.00
74065;BME280;62421;51.412;5.432;2023-04-03T04:09:57;102927.84;;;-0.36;100.00
74065;BME280;62421;51.412;5.432;2023-04-03T04:12:22;102932.28;;;-0.34;100.00
74065;BME280;62421;51.412;5.432;2023-04-03T04:14:48;102923.50;;;-0.30;100.00
74065;BME280;62421;51.412;5.432;2023-04-03T04:17:13;102927.91;;;-0.29;100.00
74065;BME280;62421;51.412;5.432;2023-04-03T04:19:39;102931.41;;;-0.28;100.00
74065;BME280;62421;51.412;5.432;2023-04-03T04:22:05;102932.25;;;-0.32;100.00
74065;BME280;62421;51.412;5.432;2023-04-03T04:24:30;102922.59;;;-0.33;100.00
74065;BME280;62421;51.412;5.432;2023-04-03T04:26:56;102929.63;;;-0.34;100.00
74065;BME280;62421;51.412;5.432;2023-04-03T04:29:21;102922.59;;;-0.33;100.00
74065;BME280;62421;51.412;5.432;2023-04-03T04:31:47;102928.75;;;-0.31;100.00
74065;BME280;62421;51.412;5.432;2023-04-03T04:34:12;102927.91;;;-0.29;100.00
74065;BME280;62421;51.412;5.432;2023-04-03T04:36:40;102934.06;;;-0.28;100.00
74065;BME280;62421;51.412;5.432;2023-04-03T04:39:05;102927.91;;;-0.27;100.00
74065;BME280;62421;51.412;5.432;2023-04-03T04:41:31;102931.44;;;-0.30;100.00
74065;BME280;62421;51.412;5.432;2023-04-03T04:43:57;102935.78;;;-0.33;100.00
74065;BME280;62421;51.412;5.432;2023-04-03T04:46:22;102931.38;;;-0.34;100.00
74065;BME280;62421;51.412;5.432;2023-04-03T04:48:48;102941.06;;;-0.33;100.00
74065;BME280;62421;51.412;5.432;2023-04-03T04:51:14;102941.03;;;-0.35;100.00
74065;BME280;62421;51.412;5.432;2023-04-03T04:53:40;102942.84;;;-0.31;100.00
74065;BME280;62421;51.412;5.432;2023-04-03T04:56:06;102946.34;;;-0.33;100.00
74065;BME280;62421;51.412;5.432;2023-04-03T04:58:31;102942.84;;;-0.31;100.00
74065;BME280;62421;51.412;5.432;2023-04-03T05:01:05;102952.56;;;-0.30;100.00
74065;BME280;62421;51.412;5.432;2023-04-03T05:03:31;102953.41;;;-0.31;100.00
74065;BME280;62421;51.412;5.432;2023-04-03T05:05:56;102953.34;;;-0.37;100.00
74065;BME280;62421;51.412;5.432;2023-04-03T05:08:22;102952.47;;;-0.37;100.00
74065;BME280;62421;51.412;5.432;2023-04-03T05:10:48;102950.75;;;-0.34;100.00
74065;BME280;62421;51.412;5.432;2023-04-03T05:13:14;102954.31;;;-0.29;100.00
74065;BME280;62421;51.412;5.432;2023-04-03T05:15:39;102953.44;;;-0.26;100.00
74065;BME280;62421;51.412;5.432;2023-04-03T05:18:05;102953.50;;;-0.18;100.00
74065;BME280;62421;51.412;5.432;2023-04-03T05:20:31;102960.56;;;-0.16;100.00
74065;BME280;62421;51.412;5.432;2023-04-03T05:22:56;102957.06;;;-0.16;100.00
74065;BME280;62421;51.412;5.432;2023-04-03T05:25:22;102971.13;;;-0.19;100.00
74065;BME280;62421;51.412;5.432;2023-04-03T05:27:47;102968.47;;;-0.19;100.00
74065;BME280;62421;51.412;5.432;2023-04-03T05:30:13;102972.00;;;-0.18;100.00
74065;BME280;62421;51.412;5.432;2023-04-03T05:32:38;102972.00;;;-0.18;100.00
74065;BME280;62421;51.412;5.432;2023-04-03T05:35:04;102978.16;;;-0.21;100.00
74065;BME280;62421;51.412;5.432;2023-04-03T05:37:31;102977.25;;;-0.23;100.00
74065;BME280;62421;51.412;5.432;2023-04-03T05:39:56;102982.53;;;-0.23;100.00
74065;BME280;62421;51.412;5.432;2023-04-03T05:42:21;102978.13;;;-0.23;100.00
74065;BME280;62421;51.412;5.432;2023-04-03T05:44:47;102979.00;;;-0.22;100.00
74065;BME280;62421;51.412;5.432;2023-04-03T05:47:12;102985.16;;;-0.25;100.00
74065;BME280;62421;51.412;5.432;2023-04-03T05:49:38;102984.28;;;-0.24;100.00
74065;BME280;62421;51.412;5.432;2023-04-03T05:52:10;102985.19;;;-0.20;100.00
74065;BME280;62421;51.412;5.432;2023-04-03T05:54:42;102978.22;;;-0.15;100.00
74065;BME280;62421;51.412;5.432;2023-04-03T05:57:08;102989.69;;;-0.10;100.00
74065;BME280;62421;51.412;5.432;2023-04-03T05:59:33;102980.91;;;-0.06;100.00
74065;BME280;62421;51.412;5.432;2023-04-03T06:01:58;102973.84;;;-0.08;100.00
74065;BME280;62421;51.412;5.432;2023-04-03T06:04:24;102980.00;;;-0.08;100.00
74065;BME280;62421;51.412;5.432;2023-04-03T06:09:17;102983.59;;;0.01;100.00
74065;BME280;62421;51.412;5.432;2023-04-03T06:11:43;102979.22;;;0.04;100.00
74065;BME280;62421;51.412;5.432;2023-04-03T06:14:09;102987.19;;;0.07;100.00
74065;BME280;62421;51.412;5.432;2023-04-03T06:16:35;102988.97;;;0.10;100.00
74065;BME280;62421;51.412;5.432;2023-04-03T06:19:01;102990.75;;;0.11;100.00
74065;BME280;62421;51.412;5.432;2023-04-03T06:21:27;102992.50;;;0.12;100.00
74065;BME280;62421;51.412;5.432;2023-04-03T06:23:52;102989.88;;;0.16;100.00
74065;BME280;62421;51.412;5.432;2023-04-03T06:26:18;103004.88;;;0.20;100.00
74065;BME280;62421;51.412;5.432;2023-04-03T06:28:43;102992.56;;;0.23;100.00
74065;BME280;62421;51.412;5.432;2023-04-03T06:31:08;102997.91;;;0.29;100.00
74065;BME280;62421;51.412;5.432;2023-04-03T06:33:34;103005.91;;;0.38;100.00
74065;BME280;62421;51.412;5.432;2023-04-03T06:36:02;103003.28;;;0.43;100.00
74065;BME280;62421;51.412;5.432;2023-04-03T06:38:28;103002.41;;;0.44;100.00
74065;BME280;62421;51.412;5.432;2023-04-03T06:40:54;103003.31;;;0.46;100.00
74065;BME280;62421;51.412;5.432;2023-04-03T06:43:19;103009.50;;;0.51;100.00
74065;BME280;62421;51.412;5.432;2023-04-03T06:45:45;103017.47;;;0.54;100.00
74065;BME280;62421;51.412;5.432;2023-04-03T06:48:12;103006.91;;;0.54;100.00
74065;BME280;62421;51.412;5.432;2023-04-03T06:50:38;103008.69;;;0.61;100.00
74065;BME280;62421;51.412;5.432;2023-04-03T06:53:03;103002.53;;;0.65;100.00
74065;BME280;62421;51.412;5.432;2023-04-03T06:55:29;103017.59;;;0.75;99.80
74065;BME280;62421;51.412;5.432;2023-04-03T06:57:54;103016.72;;;0.81;100.00
74065;BME280;62421;51.412;5.432;2023-04-03T07:00:20;103016.75;;;0.84;100.00
74065;BME280;62421;51.412;5.432;2023-04-03T07:02:46;103024.72;;;0.92;98.28
74065;BME280;62421;51.412;5.432;2023-04-03T07:05:12;103026.53;;;1.02;99.11
74065;BME280;62421;51.412;5.432;2023-04-03T07:07:38;103018.59;;;1.05;97.88
74065;BME280;62421;51.412;5.432;2023-04-03T07:10:05;103025.69;;;1.08;100.00
74065;BME280;62421;51.412;5.432;2023-04-03T07:12:30;103021.22;;;1.00;100.00
74065;BME280;62421;51.412;5.432;2023-04-03T07:14:56;103028.34;;;1.08;98.14
74065;BME280;62421;51.412;5.432;2023-04-03T07:17:21;103023.09;;;1.26;95.60
74065;BME280;62421;51.412;5.432;2023-04-03T07:19:46;103020.47;;;1.37;96.01
74065;BME280;62421;51.412;5.432;2023-04-03T07:22:12;103030.22;;;1.47;94.94
74065;BME280;62421;51.412;5.432;2023-04-03T07:24:38;103028.47;;;1.52;94.59
74065;BME280;62421;51.412;5.432;2023-04-03T07:27:03;103031.13;;;1.49;97.60
74065;BME280;62421;51.412;5.432;2023-04-03T07:29:29;103032.84;;;1.41;97.54
74065;BME280;62421;51.412;5.432;2023-04-03T07:31:55;103036.41;;;1.49;93.94
74065;BME280;62421;51.412;5.432;2023-04-03T07:34:21;103035.56;;;1.64;93.33
74065;BME280;62421;51.412;5.432;2023-04-03T07:36:47;103028.50;;;1.74;93.10
74065;BME280;62421;51.412;5.432;2023-04-03T07:39:12;103025.88;;;1.81;91.52
74065;BME280;62421;51.412;5.432;2023-04-03T07:41:37;103032.06;;;1.83;92.88
74065;BME280;62421;51.412;5.432;2023-04-03T07:44:03;103037.38;;;1.88;92.20
74065;BME280;62421;51.412;5.432;2023-04-03T07:46:29;103036.50;;;1.94;90.76
74065;BME280;62421;51.412;5.432;2023-04-03T07:48:55;103035.59;;;2.04;90.06
74065;BME280;62421;51.412;5.432;2023-04-03T07:51:20;103037.38;;;2.02;91.79
74065;BME280;62421;51.412;5.432;2023-04-03T07:53:46;103033.84;;;2.08;91.24
74065;BME280;62421;51.412;5.432;2023-04-03T07:56:12;103039.16;;;2.12;88.86
74065;BME280;62421;51.412;5.432;2023-04-03T07:58:37;103040.91;;;2.19;88.03
74065;BME280;62421;51.412;5.432;2023-04-03T08:01:03;103043.56;;;2.24;91.66
74065;BME280;62421;51.412;5.432;2023-04-03T08:03:28;103053.28;;;2.20;91.16
74065;BME280;62421;51.412;5.432;2023-04-03T08:05:54;103038.28;;;2.35;88.14
74065;BME280;62421;51.412;5.432;2023-04-03T08:08:23;103043.53;;;2.49;87.81
74065;BME280;62421;51.412;5.432;2023-04-03T08:10:51;103050.59;;;2.57;84.95
74065;BME280;62421;51.412;5.432;2023-04-03T08:13:17;103036.44;;;2.74;84.74
74065;BME280;62421;51.412;5.432;2023-04-03T08:15:42;103036.44;;;2.80;84.07
74065;BME280;62421;51.412;5.432;2023-04-03T08:18:08;103047.91;;;2.85;84.42
74065;BME280;62421;51.412;5.432;2023-04-03T08:20:34;103039.94;;;2.83;87.66
74065;BME280;62421;51.412;5.432;2023-04-03T08:23:00;103039.03;;;2.91;81.02
74065;BME280;62421;51.412;5.432;2023-04-03T08:25:25;103036.34;;;3.01;82.73
74065;BME280;62421;51.412;5.432;2023-04-03T08:27:51;103046.06;;;3.01;82.68
74065;BME280;62421;51.412;5.432;2023-04-03T08:30:17;103038.09;;;3.01;82.69
74065;BME280;62421;51.412;5.432;2023-04-03T08:32:42;103043.38;;;3.16;83.10
74065;BME280;62421;51.412;5.432;2023-04-03T08:35:09;103053.06;;;3.26;77.76
74065;BME280;62421;51.412;5.432;2023-04-03T08:37:35;103040.66;;;3.32;79.97
74065;BME280;62421;51.412;5.432;2023-04-03T08:40:03;103053.03;;;3.36;80.23
74065;BME280;62421;51.412;5.432;2023-04-03T08:42:44;103052.09;;;3.40;79.95
74065;BME280;62421;51.412;5.432;2023-04-03T08:47:53;103042.31;;;3.48;72.58
74065;BME280;62421;51.412;5.432;2023-04-03T08:50:30;103058.13;;;3.71;70.93
74065;BME280;62421;51.412;5.432;2023-04-03T08:52:58;103051.00;;;3.79;69.93
74065;BME280;62421;51.412;5.432;2023-04-03T08:58:04;103051.88;;;3.80;74.37
74065;BME280;62421;51.412;5.432;2023-04-03T09:00:48;103051.91;;;3.77;77.06
74065;BME280;62421;51.412;5.432;2023-04-03T09:03:17;103045.69;;;3.76;72.44
74065;BME280;62421;51.412;5.432;2023-04-03T09:08:29;103058.97;;;3.79;73.09
74065;BME280;62421;51.412;5.432;2023-04-03T09:11:07;103057.13;;;3.89;64.82
74065;BME280;62421;51.412;5.432;2023-04-03T09:14:07;103045.50;;;4.05;66.00
74065;BME280;62421;51.412;5.432;2023-04-03T09:16:56;103050.69;;;4.19;65.44
74065;BME280;62421;51.412;5.432;2023-04-03T09:22:34;103052.19;;;4.49;64.92
74065;BME280;62421;51.412;5.432;2023-04-03T09:25:18;103043.19;;;4.64;52.07
74065;BME280;62421;51.412;5.432;2023-04-03T09:27:45;103044.91;;;4.70;50.92
74065;BME280;62421;51.412;5.432;2023-04-03T09:30:22;103048.44;;;4.72;51.14
74065;BME280;62421;51.412;5.432;2023-04-03T09:32:51;103047.59;;;4.68;51.60
74065;BME280;62421;51.412;5.432;2023-04-03T09:35:27;103049.31;;;4.74;53.75
74065;BME280;62421;51.412;5.432;2023-04-03T09:37:58;103055.41;;;4.85;49.29
74065;BME280;62421;51.412;5.432;2023-04-03T09:42:51;103043.63;;;5.05;50.52
74065;BME280;62421;51.412;5.432;2023-04-03T09:50:38;103032.91;;;5.12;53.27
74065;BME280;62421;51.412;5.432;2023-04-03T09:56:09;103031.03;;;5.21;47.74
74065;BME280;62421;51.412;5.432;2023-04-03T09:58:47;103030.09;;;5.25;50.74
74065;BME280;62421;51.412;5.432;2023-04-03T10:01:41;103029.16;;;5.27;46.90
74065;BME280;62421;51.412;5.432;2023-04-03T10:04:16;103014.88;;;5.33;51.53
74065;BME280;62421;51.412;5.432;2023-04-03T10:06:50;103014.84;;;5.36;43.50
74065;BME280;62421;51.412;5.432;2023-04-03T10:14:30;103004.91;;;5.46;47.11
74065;BME280;62421;51.412;5.432;2023-04-03T10:17:18;103003.91;;;5.54;51.40
74065;BME280;62421;51.412;5.432;2023-04-03T10:38:04;102981.09;;;5.94;44.51
74065;BME280;62421;51.412;5.432;2023-04-03T10:44:03;102987.19;;;6.02;43.73
74065;BME280;62421;51.412;5.432;2023-04-03T10:47:20;102988.03;;;6.06;42.21
74065;BME280;62421;51.412;5.432;2023-04-03T10:58:21;102977.25;;;6.13;45.95
74065;BME280;62421;51.412;5.432;2023-04-03T11:00:50;102979.81;;;6.20;45.47
74065;BME280;62421;51.412;5.432;2023-04-03T11:03:30;102967.28;;;6.23;46.27
74065;BME280;62421;51.412;5.432;2023-04-03T11:06:00;102969.84;;;6.28;41.78
74065;BME280;62421;51.412;5.432;2023-04-03T11:11:06;102968.00;;;6.33;45.13
74065;BME280;62421;51.412;5.432;2023-04-03T11:13:38;102967.03;;;6.37;38.07
74065;BME280;62421;51.412;5.432;2023-04-03T11:16:06;102973.16;;;6.41;44.66
74065;BME280;62421;51.412;5.432;2023-04-03T11:19:16;102954.47;;;6.42;43.81
74065;BME280;62421;51.412;5.432;2023-04-03T11:21:38;102958.84;;;6.46;41.16
74065;BME280;62421;51.412;5.432;2023-04-03T11:24:06;102957.84;;;6.52;44.52
74065;BME280;62421;51.412;5.432;2023-04-03T11:26:40;102955.88;;;6.62;43.19
74065;BME280;62421;51.412;5.432;2023-04-03T11:29:14;102948.66;;;6.67;40.63
74065;BME280;62421;51.412;5.432;2023-04-03T11:34:37;102948.63;;;6.68;37.68
74065;BME280;62421;51.412;5.432;2023-04-03T11:37:13;102951.28;;;6.68;39.44
74065;BME280;62421;51.412;5.432;2023-04-03T11:39:48;102936.00;;;6.75;45.39
74065;BME280;62421;51.412;5.432;2023-04-03T11:42:25;102924.31;;;6.82;44.15
74065;BME280;62421;51.412;5.432;2023-04-03T11:45:34;102931.28;;;6.88;39.18
74065;BME280;62421;51.412;5.432;2023-04-03T11:48:04;102920.63;;;6.88;43.39
74065;BME280;62421;51.412;5.432;2023-04-03T11:55:53;102910.34;;;7.10;41.57
74065;BME280;62421;51.412;5.432;2023-04-03T11:58:30;102923.53;;;7.17;39.04
74065;BME280;62421;51.412;5.432;2023-04-03T12:01:02;102909.34;;;7.14;39.18
74065;BME280;62421;51.412;5.432;2023-04-03T12:19:35;102890.63;;;7.53;45.33
74065;BME280;62421;51.412;5.432;2023-04-03T12:24:36;102891.09;;;7.70;39.96
74065;BME280;62421;51.412;5.432;2023-04-03T12:27:24;102898.22;;;7.70;36.49
74065;BME280;62421;51.412;5.432;2023-04-03T12:30:00;102887.88;;;7.56;35.19
74065;BME280;62421;51.412;5.432;2023-04-03T12:32:58;102895.06;;;7.54;40.64
74065;BME280;62421;51.412;5.432;2023-04-03T12:35:29;102893.91;;;7.64;38.21
74065;BME280;62421;51.412;5.432;2023-04-03T12:48:32;102873.72;;;7.87;37.16
74065;BME280;62421;51.412;5.432;2023-04-03T12:50:59;102874.50;;;7.90;35.24
74065;BME280;62421;51.412;5.432;2023-04-03T12:53:27;102873.69;;;7.88;34.76
74065;BME280;62421;51.412;5.432;2023-04-03T12:55:56;102860.41;;;7.85;34.81
74065;BME280;62421;51.412;5.432;2023-04-03T12:58:26;102875.75;;;7.77;34.10
74065;BME280;62421;51.412;5.432;2023-04-03T13:01:25;102854.66;;;7.65;37.15
74065;BME280;62421;51.412;5.432;2023-04-03T13:03:58;102861.47;;;7.76;34.93
74065;BME280;62421;51.412;5.432;2023-04-03T13:06:26;102862.28;;;7.80;35.46
74065;BME280;62421;51.412;5.432;2023-04-03T13:08:58;102853.25;;;7.86;35.48
74065;BME280;62421;51.412;5.432;2023-04-03T13:11:25;102840.00;;;7.81;38.64
74065;BME280;62421;51.412;5.432;2023-04-03T13:14:16;102851.53;;;7.83;38.76
74065;BME280;62421;51.412;5.432;2023-04-03T13:16:41;102849.03;;;7.75;35.34
74065;BME280;62421;51.412;5.432;2023-04-03T13:19:16;102842.72;;;7.78;39.83
74065;BME280;62421;51.412;5.432;2023-04-03T13:21:41;102848.78;;;7.85;38.85
74065;BME280;62421;51.412;5.432;2023-04-03T13:24:09;102840.59;;;7.91;40.38
74065;BME280;62421;51.412;5.432;2023-04-03T13:26:35;102836.88;;;7.98;38.80
74065;BME280;62421;51.412;5.432;2023-04-03T13:29:04;102828.59;;;8.06;40.96
74065;BME280;62421;51.412;5.432;2023-04-03T13:31:32;102829.44;;;8.08;40.18
74065;BME280;62421;51.412;5.432;2023-04-03T13:34:17;102814.06;;;8.16;38.61
74065;BME280;62421;51.412;5.432;2023-04-03T13:36:45;102840.94;;;8.11;37.06
74065;BME280;62421;51.412;5.432;2023-04-03T13:39:25;102831.38;;;8.03;37.00
74065;BME280;62421;51.412;5.432;2023-04-03T13:41:53;102835.84;;;8.02;37.64
74065;BME280;62421;51.412;5.432;2023-04-03T13:47:20;102826.81;;;8.06;39.20
74065;BME280;62421;51.412;5.432;2023-04-03T13:50:12;102815.09;;;8.10;39.24
74065;BME280;62421;51.412;5.432;2023-04-03T13:58:29;102819.91;;;7.97;39.78
74065;BME280;62421;51.412;5.432;2023-04-03T14:01:08;102808.50;;;7.91;40.16
74065;BME280;62421;51.412;5.432;2023-04-03T14:03:45;102806.66;;;7.93;44.63
74065;BME280;62421;51.412;5.432;2023-04-03T14:06:14;102812.78;;;7.98;41.68
74065;BME280;62421;51.412;5.432;2023-04-03T14:08:41;102794.84;;;8.02;41.47
74065;BME280;62421;51.412;5.432;2023-04-03T14:11:16;102810.81;;;8.05;43.23
74065;BME280;62421;51.412;5.432;2023-04-03T14:13:43;102808.06;;;8.06;43.08
74065;BME280;62421;51.412;5.432;2023-04-03T14:16:13;102809.91;;;8.04;40.54
74065;BME280;62421;51.412;5.432;2023-04-03T14:18:39;102805.53;;;8.02;42.13
74065;BME280;62421;51.412;5.432;2023-04-03T14:21:05;102801.13;;;8.00;42.54
74065;BME280;62421;51.412;5.432;2023-04-03T14:23:31;102803.66;;;8.05;42.02
74065;BME280;62421;51.412;5.432;2023-04-03T14:25:58;102805.94;;;8.19;41.93
74065;BME280;62421;51.412;5.432;2023-04-03T14:28:25;102802.47;;;8.15;41.05
74065;BME280;62421;51.412;5.432;2023-04-03T14:30:51;102796.94;;;8.21;42.54
74065;BME280;62421;51.412;5.432;2023-04-03T14:33:20;102797.88;;;8.20;43.42
74065;BME280;62421;51.412;5.432;2023-04-03T14:35:47;102795.09;;;8.24;42.73
74065;BME280;62421;51.412;5.432;2023-04-03T14:40:43;102809.59;;;8.15;42.15
74065;BME280;62421;51.412;5.432;2023-04-03T14:43:09;102794.47;;;8.15;42.28
74065;BME280;62421;51.412;5.432;2023-04-03T14:45:37;102799.69;;;8.18;42.54
74065;BME280;62421;51.412;5.432;2023-04-03T14:48:03;102796.06;;;8.21;42.50
74065;BME280;62421;51.412;5.432;2023-04-03T14:50:28;102797.72;;;8.25;40.49
74065;BME280;62421;51.412;5.432;2023-04-03T14:52:56;102787.81;;;8.29;44.54